Time;durP1;ratioP1;P1;durP2;ratioP2;P2;SDS_P1;SDS_P2;PMS_P1;PMS_P2;Temp;Humidity;BMP_temperature;BMP_pressure;BME280_temperature;BME280_humidity;BME280_pressure;Samples;Min_cycle;Max_cycle;Signal;HPM_P1;HPM_P2
2023/06/09 00:00:58;;;;;;;6.97;3.75;;;;;;;19.06;100.00;101373.00;5271107;28;20028;-72
2023/06/09 00:03:31;;;;;;;9.52;4.32;;;;;;;19.09;100.00;101372.59;5267808;28;20024;-71
2023/06/09 00:06:03;;;;;;;8.02;4.10;;;;;;;19.03;100.00;101376.91;5267510;28;20071;-70
2023/06/09 00:08:35;;;;;;;9.70;3.55;;;;;;;18.92;100.00;101371.97;5267830;28;20024;-70
2023/06/09 00:11:07;;;;;;;8.20;3.75;;;;;;;19.03;100.00;101376.06;5267780;28;20024;-69
2023/06/09 00:13:38;;;;;;;7.68;3.90;;;;;;;18.91;100.00;101367.56;5267026;28;20497;-70
2023/06/09 00:16:09;;;;;;;7.20;3.80;;;;;;;18.86;100.00;101375.38;5267185;28;20056;-70
2023/06/09 00:18:41;;;;;;;9.13;3.95;;;;;;;18.81;100.00;101375.06;5267929;28;20173;-70
2023/06/09 00:21:15;;;;;;;9.60;4.05;;;;;;;18.82;100.00;101374.91;5267081;28;20074;-71
2023/06/09 00:23:47;;;;;;;10.82;4.75;;;;;;;18.73;100.00;101367.88;5268212;28;20111;-70
2023/06/09 00:26:18;;;;;;;10.30;4.22;;;;;;;18.69;100.00;101369.28;5271434;28;20027;-70
2023/06/09 00:28:50;;;;;;;8.90;4.35;;;;;;;18.69;100.00;101361.19;5267647;28;20051;-70
2023/06/09 00:31:21;;;;;;;6.43;4.00;;;;;;;18.58;100.00;101367.00;5267532;28;20393;-70
2023/06/09 00:33:52;;;;;;;10.18;3.97;;;;;;;18.62;100.00;101362.94;5266878;28;20111;-70
2023/06/09 00:36:23;;;;;;;9.52;4.35;;;;;;;18.56;100.00;101360.97;5278109;28;20028;-71
2023/06/09 00:38:55;;;;;;;7.60;4.45;;;;;;;18.51;100.00;101364.19;5276886;28;20055;-70
2023/06/09 00:41:26;;;;;;;6.30;3.63;;;;;;;18.50;100.00;101360.66;5267067;28;20143;-70
2023/06/09 00:43:58;;;;;;;10.25;4.38;;;;;;;18.40;100.00;101357.38;5266017;28;20035;-70
2023/06/09 00:46:30;;;;;;;6.60;3.65;;;;;;;18.39;100.00;101371.91;5269133;28;20105;-70
2023/06/09 00:49:01;;;;;;;7.07;3.92;;;;;;;18.28;100.00;101364.22;5268942;28;20036;-70
2023/06/09 00:51:36;;;;;;;6.35;3.88;;;;;;;18.35;100.00;101364.34;5270433;28;20505;-70
2023/06/09 00:54:07;;;;;;;8.02;4.05;;;;;;;18.20;100.00;101361.56;5274985;28;20567;-70
2023/06/09 00:56:39;;;;;;;10.07;4.22;;;;;;;18.24;100.00;101365.59;5270219;28;20036;-70
2023/06/09 00:59:14;;;;;;;9.07;4.40;;;;;;;18.18;100.00;101359.06;5268137;28;20077;-70
2023/06/09 01:01:45;;;;;;;11.95;4.55;;;;;;;18.12;100.00;101360.59;5267589;28;20033;-70
2023/06/09 01:04:18;;;;;;;13.73;4.28;;;;;;;18.08;100.00;101356.59;5270461;28;20043;-70
2023/06/09 01:07:03;;;;;;;9.50;4.13;;;;;;;18.08;100.00;101351.19;5270435;28;20122;-71
2023/06/09 01:09:45;;;;;;;8.52;4.55;;;;;;;18.09;100.00;101349.34;5267269;28;20386;-70
2023/06/09 01:12:35;;;;;;;7.55;4.05;;;;;;;17.99;100.00;101346.88;5265347;28;20031;-70
2023/06/09 01:15:12;;;;;;;6.97;4.43;;;;;;;17.91;100.00;101353.16;5269705;28;20029;-70
2023/06/09 01:17:48;;;;;;;8.38;4.10;;;;;;;17.95;100.00;101356.34;5266550;28;20079;-71
2023/06/09 01:20:36;;;;;;;10.55;4.15;;;;;;;17.92;100.00;101344.06;5266805;28;20394;-71
2023/06/09 01:23:15;;;;;;;12.63;5.47;;;;;;;17.84;100.00;101349.47;5265676;28;20089;-71
2023/06/09 01:25:48;;;;;;;8.95;4.45;;;;;;;17.71;100.00;101341.13;5267794;28;20547;-70
2023/06/09 01:28:20;;;;;;;9.30;4.47;;;;;;;17.69;100.00;101341.31;5265918;28;20341;-70
2023/06/09 01:30:52;;;;;;;9.95;5.00;;;;;;;17.65;100.00;101339.97;5266453;28;20313;-70
2023/06/09 01:33:25;;;;;;;9.20;4.38;;;;;;;17.63;100.00;101341.16;5265088;28;20084;-71
2023/06/09 01:35:57;;;;;;;11.10;4.65;;;;;;;17.55;100.00;101336.66;5271205;28;20024;-70
2023/06/09 01:38:28;;;;;;;10.68;4.55;;;;;;;17.56;100.00;101339.16;5266810;28;20739;-70
2023/06/09 01:41:00;;;;;;;12.38;4.53;;;;;;;17.50;100.00;101333.66;5267260;28;20035;-71
2023/06/09 01:43:31;;;;;;;10.15;4.55;;;;;;;17.44;100.00;101331.66;5265960;28;20542;-69
2023/06/09 01:46:02;;;;;;;12.30;4.50;;;;;;;17.42;100.00;101337.22;5275811;28;20020;-70
2023/06/09 01:48:57;;;;;;;12.25;4.57;;;;;;;17.44;100.00;101339.75;5267938;28;20862;-70
2023/06/09 01:51:47;;;;;;;9.73;4.28;;;;;;;17.43;100.00;101347.00;5267096;28;20502;-70
2023/06/09 01:54:34;;;;;;;9.13;4.47;;;;;;;17.37;100.00;101329.66;5264935;28;20035;-70
2023/06/09 01:57:19;;;;;;;8.45;4.55;;;;;;;17.27;100.00;101331.72;5265085;28;20060;-71
2023/06/09 02:00:00;;;;;;;10.77;4.65;;;;;;;17.25;100.00;101332.91;5269271;28;20029;-70
2023/06/09 02:02:33;;;;;;;8.60;4.40;;;;;;;17.15;100.00;101336.66;5266315;28;20040;-71
2023/06/09 02:05:06;;;;;;;8.38;4.72;;;;;;;17.18;100.00;101338.13;5275239;28;20032;-71
2023/06/09 02:07:39;;;;;;;9.20;4.68;;;;;;;17.09;100.00;101329.28;5266178;28;20161;-70
2023/06/09 02:10:12;;;;;;;8.45;4.63;;;;;;;16.99;100.00;101334.84;5276772;28;20038;-70
2023/06/09 02:12:43;;;;;;;15.05;4.90;;;;;;;17.05;100.00;101329.78;5266094;28;20093;-70
2023/06/09 02:15:14;;;;;;;10.52;4.78;;;;;;;16.94;100.00;101322.91;5268336;28;20453;-70
2023/06/09 02:17:46;;;;;;;11.93;5.10;;;;;;;16.90;100.00;101325.13;5270658;28;20438;-70
2023/06/09 02:20:18;;;;;;;10.07;5.68;;;;;;;16.91;100.00;101313.31;5265117;28;20434;-70
2023/06/09 02:22:49;;;;;;;11.30;7.32;;;;;;;16.89;100.00;101315.34;5265406;28;20027;-70
2023/06/09 02:25:20;;;;;;;9.60;5.93;;;;;;;16.81;100.00;101318.00;5264584;28;20028;-71
2023/06/09 02:27:51;;;;;;;10.98;5.85;;;;;;;16.83;100.00;101310.63;5264695;28;20032;-70
2023/06/09 02:30:23;;;;;;;8.68;4.65;;;;;;;16.84;100.00;101317.72;5264571;28;20035;-70
2023/06/09 02:32:55;;;;;;;9.57;5.75;;;;;;;16.78;100.00;101313.00;5265387;28;20040;-70
2023/06/09 02:35:27;;;;;;;11.88;5.68;;;;;;;16.67;100.00;101316.03;5265931;28;20114;-70
2023/06/09 02:38:05;;;;;;;12.57;5.53;;;;;;;16.79;100.00;101314.66;5264599;28;20036;-71
2023/06/09 02:40:41;;;;;;;17.88;7.22;;;;;;;16.63;100.00;101312.84;5269024;28;20024;-71
2023/06/09 02:43:12;;;;;;;;;;;;;;;16.91;100.00;101315.16;5264477;28;20089;-71
2023/06/09 02:45:44;;;;;;;10.83;5.97;;;;;;;16.63;100.00;101315.53;5268941;28;19916;-72
2023/06/09 02:48:15;;;;;;;10.20;5.57;;;;;;;16.62;100.00;101311.16;5263779;28;20294;-71
2023/06/09 02:50:47;;;;;;;11.88;5.63;;;;;;;16.51;100.00;101314.19;5268833;28;20434;-72
2023/06/09 02:53:18;;;;;;;12.50;6.80;;;;;;;16.58;100.00;101313.34;5263574;28;20024;-71
2023/06/09 02:55:49;;;;;;;9.77;5.25;;;;;;;16.49;100.00;101308.16;5265837;28;20034;-71
2023/06/09 02:58:21;;;;;;;11.43;5.20;;;;;;;16.42;100.00;101310.66;5265300;28;20025;-71
2023/06/09 03:00:52;;;;;;;9.15;5.20;;;;;;;16.42;100.00;101311.50;5265135;28;20035;-71
2023/06/09 03:03:23;;;;;;;9.85;5.20;;;;;;;16.37;100.00;101305.78;5270387;28;20043;-71
2023/06/09 03:05:55;;;;;;;11.25;5.75;;;;;;;16.37;100.00;101316.56;5264713;28;20107;-72
2023/06/09 03:08:26;;;;;;;9.55;5.38;;;;;;;16.38;100.00;101320.09;5265186;28;20031;-72
2023/06/09 03:10:57;;;;;;;8.65;5.38;;;;;;;16.31;100.00;101321.78;5264819;28;20032;-71
2023/06/09 03:13:29;;;;;;;12.95;5.57;;;;;;;16.28;100.00;101330.19;5270052;28;20115;-72
2023/06/09 03:16:00;;;;;;;11.88;6.25;;;;;;;16.29;100.00;101331.91;5267793;28;20410;-71
2023/06/09 03:18:31;;;;;;;10.27;5.57;;;;;;;16.28;100.00;101324.81;5264676;28;20052;-71
2023/06/09 03:21:04;;;;;;;10.38;5.47;;;;;;;16.19;100.00;101321.28;5270811;28;20056;-71
2023/06/09 03:23:35;;;;;;;14.85;6.10;;;;;;;16.19;100.00;101323.97;5264721;28;20028;-71
2023/06/09 03:26:07;;;;;;;17.33;6.88;;;;;;;16.16;100.00;101327.00;5264239;28;20040;-72
2023/06/09 03:28:38;;;;;;;13.05;6.45;;;;;;;16.07;100.00;101323.44;5266170;28;20038;-72
2023/06/09 03:31:10;;;;;;;8.85;5.85;;;;;;;16.03;100.00;101325.63;5263894;28;20494;-72
2023/06/09 03:33:41;;;;;;;15.38;6.70;;;;;;;16.09;100.00;101325.97;5264802;28;20126;-72
2023/06/09 03:36:12;;;;;;;21.52;15.52;;;;;;;16.00;100.00;101334.03;5270984;28;20442;-72
2023/06/09 03:38:44;;;;;;;12.18;7.68;;;;;;;15.99;100.00;101329.69;5271120;28;20063;-72
2023/06/09 03:41:15;;;;;;;12.30;5.95;;;;;;;15.93;100.00;101322.25;5266947;28;20034;-72
2023/06/09 03:43:47;;;;;;;14.52;6.00;;;;;;;15.91;100.00;101328.81;5264684;28;20031;-72
2023/06/09 03:46:18;;;;;;;14.93;5.82;;;;;;;15.92;100.00;101342.09;5266390;28;20016;-72
2023/06/09 03:48:51;;;;;;;11.43;6.20;;;;;;;15.88;100.00;101341.59;5265697;28;20024;-72
2023/06/09 03:51:23;;;;;;;9.35;6.10;;;;;;;15.84;100.00;101350.16;5269678;28;20032;-72
2023/06/09 03:53:54;;;;;;;12.45;6.10;;;;;;;15.90;100.00;101362.09;5267773;28;20028;-72
2023/06/09 03:56:25;;;;;;;12.05;5.85;;;;;;;15.91;100.00;101347.66;5267791;28;20052;-72
2023/06/09 03:58:57;;;;;;;12.70;6.30;;;;;;;15.85;100.00;101344.63;5272451;28;20390;-73
2023/06/09 04:01:30;;;;;;;11.77;5.93;;;;;;;15.85;100.00;101338.41;5268419;28;20569;-72
2023/06/09 04:04:01;;;;;;;14.18;6.85;;;;;;;15.90;100.00;101346.81;5267586;28;20131;-72
2023/06/09 04:06:35;;;;;;;12.95;6.70;;;;;;;15.92;100.00;101350.19;5271798;28;20426;-72
2023/06/09 04:09:06;;;;;;;11.13;6.18;;;;;;;15.91;100.00;101343.09;5272906;28;20085;-72
2023/06/09 04:11:37;;;;;;;11.40;6.45;;;;;;;15.97;100.00;101346.97;5281393;28;20024;-72
2023/06/09 04:14:09;;;;;;;15.25;6.28;;;;;;;15.91;100.00;101353.88;5270751;28;20455;-72
2023/06/09 04:16:41;;;;;;;12.95;5.90;;;;;;;15.95;100.00;101349.00;5270256;28;20338;-72
2023/06/09 04:19:12;;;;;;;14.65;6.85;;;;;;;15.92;100.00;101352.88;5270059;28;20034;-71
2023/06/09 04:21:45;;;;;;;14.30;6.03;;;;;;;15.94;100.00;101358.94;5267504;28;20480;-72
2023/06/09 04:24:16;;;;;;;11.73;6.93;;;;;;;15.99;100.00;101361.13;5280539;28;20845;-71
2023/06/09 04:26:47;;;;;;;14.38;6.60;;;;;;;15.95;100.00;101359.75;5274356;28;20032;-72
2023/06/09 04:29:22;;;;;;;19.92;6.63;;;;;;;16.05;100.00;101355.91;5266304;28;20033;-71
2023/06/09 04:31:58;;;;;;;12.93;6.00;;;;;;;16.02;100.00;101360.78;5268189;28;20409;-72
2023/06/09 04:34:38;;;;;;;14.48;6.20;;;;;;;16.04;100.00;101361.44;5271659;28;20036;-71
2023/06/09 04:37:09;;;;;;;11.60;6.05;;;;;;;16.03;100.00;101360.63;5273034;28;20027;-71
2023/06/09 04:39:45;;;;;;;14.23;6.78;;;;;;;16.05;100.00;101365.81;5272348;28;20139;-72
2023/06/09 04:42:19;;;;;;;;;;;;;;;16.28;100.00;101365.19;5271138;28;20024;-72
2023/06/09 04:44:50;;;;;;;12.73;6.07;;;;;;;16.14;100.00;101362.13;5275126;28;20015;-72
2023/06/09 04:47:24;;;;;;;12.80;6.07;;;;;;;16.18;100.00;101359.94;5282601;28;20489;-71
2023/06/09 04:49:56;;;;;;;11.05;5.68;;;;;;;16.17;100.00;101361.81;5270616;28;20615;-72
2023/06/09 04:52:29;;;;;;;12.88;6.85;;;;;;;16.21;100.00;101356.94;5277673;28;20032;-72
2023/06/09 04:55:01;;;;;;;13.02;6.60;;;;;;;16.23;100.00;101357.59;5267154;28;20029;-71
2023/06/09 04:57:33;;;;;;;12.10;6.32;;;;;;;16.28;100.00;101365.19;5268203;28;20351;-72
2023/06/09 05:00:07;;;;;;;11.68;6.63;;;;;;;16.25;100.00;101358.28;5277783;28;20819;-72
2023/06/09 05:02:39;;;;;;;12.02;6.38;;;;;;;16.32;100.00;101363.84;5266647;28;20133;-71
2023/06/09 05:05:11;;;;;;;15.27;6.18;;;;;;;16.23;100.00;101361.16;5266413;28;20166;-72
2023/06/09 05:07:42;;;;;;;13.85;6.57;;;;;;;16.30;100.00;101369.38;5279111;28;20489;-72
2023/06/09 05:10:13;;;;;;;14.98;6.63;;;;;;;16.34;100.00;101365.38;5266087;28;20569;-72
2023/06/09 05:12:45;;;;;;;16.88;7.43;;;;;;;16.40;100.00;101363.84;5266755;28;20143;-72
2023/06/09 05:15:16;;;;;;;10.15;6.22;;;;;;;16.45;100.00;101366.88;5270691;28;20117;-72
2023/06/09 05:17:48;;;;;;;18.20;6.78;;;;;;;16.50;100.00;101361.84;5267010;28;20020;-72
2023/06/09 05:20:21;;;;;;;10.23;6.72;;;;;;;16.57;100.00;101367.38;5268735;28;20489;-72
2023/06/09 05:22:52;;;;;;;11.60;7.20;;;;;;;16.59;100.00;101379.66;5273110;28;20404;-71
2023/06/09 05:25:24;;;;;;;12.73;6.70;;;;;;;16.71;100.00;101366.69;5268663;28;20357;-72
2023/06/09 05:27:55;;;;;;;15.10;6.82;;;;;;;16.78;100.00;101369.56;5271072;28;20036;-72
2023/06/09 05:30:27;;;;;;;17.50;7.25;;;;;;;16.82;100.00;101365.50;5271320;28;20051;-72
2023/06/09 05:32:58;;;;;;;11.38;7.05;;;;;;;16.81;100.00;101369.19;5269679;28;20023;-71
2023/06/09 05:35:29;;;;;;;11.65;6.88;;;;;;;16.90;100.00;101368.22;5272171;28;20031;-72
2023/06/09 05:38:01;;;;;;;15.90;7.32;;;;;;;16.95;100.00;101368.56;5276554;28;20636;-72
2023/06/09 05:40:32;;;;;;;14.25;6.80;;;;;;;17.00;100.00;101374.28;5265895;28;20028;-72
2023/06/09 05:43:03;;;;;;;12.48;7.32;;;;;;;17.08;100.00;101375.25;5268310;28;20058;-72
2023/06/09 05:45:35;;;;;;;15.32;7.30;;;;;;;17.12;100.00;101376.59;5270936;28;20025;-72
2023/06/09 05:48:07;;;;;;;22.00;8.35;;;;;;;17.25;100.00;101381.44;5272197;28;20111;-73
2023/06/09 05:50:40;;;;;;;12.35;6.95;;;;;;;17.29;100.00;101372.00;5268593;28;20074;-73
2023/06/09 05:53:11;;;;;;;12.48;7.18;;;;;;;17.35;100.00;101365.91;5264585;28;20497;-72
2023/06/09 05:55:44;;;;;;;16.20;7.07;;;;;;;17.41;100.00;101372.44;5265683;28;20418;-72
2023/06/09 05:58:17;;;;;;;13.70;7.15;;;;;;;17.52;100.00;101375.59;5267247;28;20056;-72
2023/06/09 06:00:49;;;;;;;11.32;7.38;;;;;;;17.58;100.00;101371.34;5279180;28;20656;-72
2023/06/09 06:03:20;;;;;;;13.90;7.30;;;;;;;17.71;100.00;101365.41;5268735;28;20089;-73
2023/06/09 06:05:52;;;;;;;11.18;7.30;;;;;;;17.83;100.00;101377.47;5265947;28;20024;-72
2023/06/09 06:08:23;;;;;;;13.57;7.65;;;;;;;17.97;100.00;101372.34;5265692;28;20028;-72
2023/06/09 06:10:55;;;;;;;13.60;8.18;;;;;;;18.06;100.00;101380.25;5265587;28;20136;-72
2023/06/09 06:13:26;;;;;;;14.05;7.68;;;;;;;18.28;100.00;101366.91;5264304;28;20049;-72
2023/06/09 06:15:59;;;;;;;14.32;8.27;;;;;;;18.48;100.00;101375.38;5276524;28;20097;-72
2023/06/09 06:18:30;;;;;;;16.13;7.85;;;;;;;18.64;100.00;101361.72;5272671;28;20117;-72
2023/06/09 06:21:02;;;;;;;16.08;8.05;;;;;;;18.88;100.00;101373.34;5280247;28;20486;-73
2023/06/09 06:23:33;;;;;;;16.42;8.15;;;;;;;19.07;100.00;101375.53;5265353;28;20086;-72
2023/06/09 06:26:05;;;;;;;14.00;8.55;;;;;;;19.32;100.00;101377.09;5276984;28;20036;-72
2023/06/09 06:28:36;;;;;;;18.77;8.38;;;;;;;19.45;100.00;101374.56;5264050;28;20405;-73
2023/06/09 06:31:08;;;;;;;16.30;8.02;;;;;;;19.70;100.00;101380.50;5277153;28;20377;-73
2023/06/09 06:33:39;;;;;;;17.63;9.10;;;;;;;19.90;100.00;101379.91;5265245;28;20039;-72
2023/06/09 06:36:11;;;;;;;16.90;8.65;;;;;;;20.17;100.00;101384.59;5265553;28;20032;-72
2023/06/09 06:38:42;;;;;;;15.05;8.35;;;;;;;20.26;100.00;101377.19;5266643;28;20112;-72
2023/06/09 06:41:13;;;;;;;19.55;9.20;;;;;;;20.37;100.00;101375.81;5267332;28;20497;-72
2023/06/09 06:43:45;;;;;;;15.45;8.65;;;;;;;20.63;100.00;101374.41;5265407;28;20519;-73
2023/06/09 06:46:18;;;;;;;15.93;8.15;;;;;;;20.86;100.00;101369.59;5269137;28;20173;-72
2023/06/09 06:48:50;;;;;;;17.38;8.10;;;;;;;21.19;100.00;101374.38;5267008;28;20032;-72
2023/06/09 06:51:21;;;;;;;13.38;8.18;;;;;;;21.32;100.00;101370.91;5266931;28;20027;-72
2023/06/09 06:53:54;;;;;;;14.13;8.50;;;;;;;21.61;100.00;101375.25;5272552;28;20052;-86
2023/06/09 06:56:25;;;;;;;18.42;8.20;;;;;;;21.76;100.00;101368.84;5264250;28;20028;-85
2023/06/09 06:58:57;;;;;;;15.98;8.45;;;;;;;22.07;100.00;101365.56;5265986;28;20039;-86
2023/06/09 07:01:30;;;;;;;19.55;8.88;;;;;;;22.35;100.00;101372.75;5265400;28;20471;-86
2023/06/09 07:04:01;;;;;;;15.68;8.23;;;;;;;22.53;100.00;101363.97;5264435;28;20033;-86
2023/06/09 07:06:32;;;;;;;15.57;7.65;;;;;;;22.69;100.00;101368.16;5264907;28;20031;-85
2023/06/09 07:09:04;;;;;;;13.68;8.70;;;;;;;22.97;100.00;101379.63;5265201;28;20036;-85
2023/06/09 07:11:37;;;;;;;16.15;8.60;;;;;;;23.15;100.00;101378.16;5264650;28;20032;-86
2023/06/09 07:14:08;;;;;;;17.02;8.27;;;;;;;23.39;100.00;101377.47;5263511;28;20068;-84
2023/06/09 07:16:39;;;;;;;15.18;8.48;;;;;;;23.37;100.00;101382.28;5264845;28;20028;-83
2023/06/09 07:19:10;;;;;;;18.55;8.10;;;;;;;23.66;100.00;101379.25;5264921;28;20036;-83
2023/06/09 07:21:42;;;;;;;17.35;8.05;;;;;;;23.98;100.00;101385.59;5270640;28;20024;-83
2023/06/09 07:24:13;;;;;;;13.07;7.70;;;;;;;24.12;100.00;101391.78;5269829;28;20064;-84
2023/06/09 07:26:45;;;;;;;11.02;7.10;;;;;;;24.31;100.00;101382.66;5276351;28;20294;-84
2023/06/09 07:29:16;;;;;;;15.35;7.97;;;;;;;24.48;100.00;101390.31;5283628;28;20028;-84
2023/06/09 07:31:47;;;;;;;15.15;8.52;;;;;;;24.61;100.00;101383.91;5286181;28;20474;-84
2023/06/09 07:34:21;;;;;;;12.52;8.05;;;;;;;24.87;100.00;101386.41;5283805;28;20050;-85
2023/06/09 07:36:55;;;;;;;19.67;8.38;;;;;;;24.77;100.00;101383.34;5278069;28;20021;-85
2023/06/09 07:39:27;;;;;;;14.13;7.03;;;;;;;25.15;100.00;101385.09;5277642;28;20062;-85
2023/06/09 07:41:58;;;;;;;12.57;7.97;;;;;;;25.50;100.00;101379.03;5274912;28;20085;-84
2023/06/09 07:44:30;;;;;;;13.40;8.02;;;;;;;25.59;100.00;101379.56;5269279;28;20024;-86
2023/06/09 07:47:02;;;;;;;10.85;7.30;;;;;;;25.73;100.00;101381.06;5271998;28;20257;-86
2023/06/09 07:49:33;;;;;;;11.50;7.00;;;;;;;26.01;100.00;101379.66;5270728;28;20074;-86
2023/06/09 07:52:05;;;;;;;11.67;7.27;;;;;;;26.22;100.00;101381.03;5268313;28;20131;-85
2023/06/09 07:54:36;;;;;;;11.85;7.30;;;;;;;26.34;100.00;101378.34;5271536;28;20297;-85
2023/06/09 07:57:07;;;;;;;16.52;6.75;;;;;;;26.70;100.00;101376.47;5268380;28;20115;-86
2023/06/09 07:59:40;;;;;;;13.60;7.22;;;;;;;26.96;100.00;101373.28;5268159;28;20189;-90
2023/06/09 08:02:11;;;;;;;12.60;6.68;;;;;;;27.02;100.00;101374.22;5278206;28;20255;-88
2023/06/09 08:04:43;;;;;;;13.02;6.85;;;;;;;27.08;100.00;101376.00;5272756;28;20032;-87
2023/06/09 08:07:14;;;;;;;10.38;6.28;;;;;;;27.42;100.00;101372.63;5268124;28;20031;-88
2023/06/09 08:09:46;;;;;;;10.38;6.50;;;;;;;27.77;100.00;101369.78;5276692;28;20028;-90
2023/06/09 08:12:17;;;;;;;9.75;6.50;;;;;;;27.81;100.00;101367.41;5279843;28;20027;-88
2023/06/09 08:14:48;;;;;;;13.35;7.07;;;;;;;27.99;100.00;101371.88;5281152;28;20052;-87
2023/06/09 08:17:20;;;;;;;9.75;6.10;;;;;;;28.16;100.00;101374.66;5272167;28;20111;-89
2023/06/09 08:19:52;;;;;;;12.82;6.72;;;;;;;28.41;100.00;101366.00;5273031;28;20158;-90
2023/06/09 08:22:23;;;;;;;10.52;6.25;;;;;;;28.49;100.00;101365.59;5274335;28;20383;-91
2023/06/09 08:24:56;;;;;;;10.40;6.40;;;;;;;28.66;100.00;101366.44;5293761;27;20035;-92
2023/06/09 08:27:27;;;;;;;13.32;7.05;;;;;;;28.52;100.00;101353.28;5276822;28;20480;-90
2023/06/09 08:29:58;;;;;;;11.85;5.82;;;;;;;29.13;100.00;101359.69;5272640;28;20020;-89
2023/06/09 08:32:33;;;;;;;10.55;6.75;;;;;;;29.14;100.00;101357.78;5271192;28;20461;-90
2023/06/09 08:35:09;;;;;;;9.40;5.67;;;;;;;29.34;100.00;101357.25;5290175;28;20046;-90
2023/06/09 08:37:44;;;;;;;;;;;;;;;30.17;100.00;101355.13;5292995;28;20027;-90
2023/06/09 08:40:15;;;;;;;11.85;6.05;;;;;;;29.55;100.00;101350.06;5282812;28;20346;-89
2023/06/09 08:42:49;;;;;;;9.88;5.05;;;;;;;29.98;100.00;101351.09;5287481;28;20081;-88
2023/06/09 08:45:22;;;;;;;8.18;5.07;;;;;;;29.92;100.00;101354.88;5280003;28;20606;-89
2023/06/09 08:47:55;;;;;;;8.80;5.70;;;;;;;30.11;100.00;101364.41;5270021;28;20446;-91
2023/06/09 08:50:30;;;;;;;10.80;5.53;;;;;;;30.38;100.00;101351.75;5274843;28;20035;-88
2023/06/09 08:53:02;;;;;;;10.25;5.55;;;;;;;30.41;100.00;101357.53;5265494;28;20028;-88
2023/06/09 08:55:36;;;;;;;13.50;6.25;;;;;;;30.87;100.00;101359.78;5269772;28;20028;-90
2023/06/09 08:58:07;;;;;;;10.13;6.45;;;;;;;30.81;98.65;101350.66;5275596;28;20517;-87
2023/06/09 09:00:40;;;;;;;9.50;4.90;;;;;;;31.00;96.30;101353.84;5269676;28;20111;-89
2023/06/09 09:03:11;;;;;;;11.15;5.60;;;;;;;31.00;91.90;101333.72;5271849;28;20493;-89
2023/06/09 09:05:44;;;;;;;15.68;5.68;;;;;;;31.35;92.78;101349.59;5268199;28;20411;-89
2023/06/09 09:08:16;;;;;;;7.90;5.20;;;;;;;31.15;90.96;101344.81;5274344;28;20029;-88
2023/06/09 09:10:48;;;;;;;9.38;5.18;;;;;;;31.40;92.75;101333.06;5276341;28;20024;-89
2023/06/09 09:13:24;;;;;;;9.50;5.25;;;;;;;31.87;89.66;101345.03;5275294;28;20032;-90
2023/06/09 09:15:58;;;;;;;9.15;5.13;;;;;;;31.73;88.09;101333.72;5295108;28;20043;-91
2023/06/09 09:18:31;;;;;;;6.32;5.40;;;;;;;31.98;87.85;101346.72;5274540;28;20063;-88
2023/06/09 09:21:03;;;;;;;10.27;5.63;;;;;;;32.20;85.17;101340.13;5279608;28;20402;-88
2023/06/09 09:23:34;;;;;;;9.52;5.40;;;;;;;32.13;85.04;101337.66;5271501;28;20426;-90
2023/06/09 09:26:07;;;;;;;13.63;5.93;;;;;;;32.34;84.16;101335.72;5273072;28;20386;-90
2023/06/09 09:28:40;;;;;;;9.48;5.43;;;;;;;32.37;85.40;101334.34;5279694;28;20198;-92
2023/06/09 09:31:11;;;;;;;8.57;5.22;;;;;;;32.70;83.09;101329.34;5272954;28;20035;-87
2023/06/09 09:33:46;;;;;;;10.35;5.05;;;;;;;32.98;80.62;101328.72;5280321;28;20032;-90
2023/06/09 09:36:18;;;;;;;12.48;6.38;;;;;;;33.01;78.42;101318.19;5268231;28;20078;-89
2023/06/09 09:38:50;;;;;;;6.40;4.85;;;;;;;33.25;76.62;101326.69;5270052;28;20155;-93
2023/06/09 09:41:21;;;;;;;5.55;4.45;;;;;;;33.30;75.95;101324.72;5279561;28;20396;-90
2023/06/09 09:43:57;;;;;;;7.55;4.47;;;;;;;33.41;75.82;101325.50;5272753;28;20565;-88
2023/06/09 09:46:37;;;;;;;8.27;5.13;;;;;;;33.69;74.57;101323.97;5274938;28;20020;-86
2023/06/09 09:49:21;;;;;;;9.68;4.95;;;;;;;33.99;75.33;101324.84;5274075;28;20048;-86
2023/06/09 09:51:57;;;;;;;7.97;5.07;;;;;;;34.15;71.95;101310.91;5264959;28;20021;-87
2023/06/09 09:54:28;;;;;;;8.23;4.43;;;;;;;33.91;68.00;101312.47;5265278;28;20032;-86
2023/06/09 09:57:00;;;;;;;8.10;4.10;;;;;;;34.33;66.76;101314.91;5266198;28;20452;-85
2023/06/09 09:59:32;;;;;;;7.22;3.83;;;;;;;34.19;64.66;101314.78;5273549;28;20427;-86
2023/06/09 10:02:05;;;;;;;7.47;4.18;;;;;;;33.88;63.72;101310.28;5275539;28;20028;-86
2023/06/09 10:04:37;;;;;;;10.13;4.50;;;;;;;34.24;66.17;101298.09;5265989;28;20029;-86
2023/06/09 10:07:10;;;;;;;7.78;3.90;;;;;;;34.47;64.29;101308.41;5274903;28;20109;-85
2023/06/09 10:09:42;;;;;;;9.52;4.68;;;;;;;34.38;65.22;101309.31;5269452;28;20430;-85
2023/06/09 10:12:13;;;;;;;6.22;4.60;;;;;;;34.81;61.99;101306.69;5266222;28;20496;-86
2023/06/09 10:14:47;;;;;;;10.85;4.28;;;;;;;34.77;64.89;101300.91;5270060;28;20094;-85
2023/06/09 10:17:20;;;;;;;5.85;3.97;;;;;;;35.00;63.41;101307.56;5271721;28;20590;-85
2023/06/09 10:19:52;;;;;;;7.55;4.03;;;;;;;35.02;63.01;101308.06;5267209;28;20116;-86
2023/06/09 10:22:24;;;;;;;10.23;4.05;;;;;;;35.12;62.80;101300.78;5265295;28;20338;-86
2023/06/09 10:24:57;;;;;;;10.60;4.38;;;;;;;35.13;59.63;101302.41;5265841;28;20032;-86
2023/06/09 10:27:30;;;;;;;8.70;4.80;;;;;;;34.77;58.68;101295.38;5266826;28;20523;-87
2023/06/09 10:30:02;;;;;;;6.97;4.32;;;;;;;35.21;58.65;101291.50;5268741;28;20523;-86
2023/06/09 10:32:38;;;;;;;7.47;3.88;;;;;;;35.51;56.05;101283.88;5266828;28;20219;-86
2023/06/09 10:35:09;;;;;;;10.30;4.10;;;;;;;35.17;56.47;101292.34;5272683;28;20021;-84
2023/06/09 10:37:42;;;;;;;11.55;4.57;;;;;;;35.47;55.93;101291.16;5267651;28;20043;-86
2023/06/09 10:40:23;;;;;;;7.65;3.92;;;;;;;35.78;57.32;101293.47;5267157;28;20070;-86
2023/06/09 10:43:18;;;;;;;7.65;4.32;;;;;;;35.81;55.92;101295.63;5274715;28;20313;-86
2023/06/09 10:45:55;;;;;;;6.47;4.18;;;;;;;35.64;55.16;101285.06;5273357;28;20025;-86
2023/06/09 10:48:48;;;;;;;6.85;3.78;;;;;;;36.17;57.28;101286.72;5266217;28;20132;-86
2023/06/09 10:51:32;;;;;;;8.95;4.30;;;;;;;36.15;55.44;101278.69;5270482;28;20025;-87
2023/06/09 10:54:12;;;;;;;7.93;4.28;;;;;;;36.74;55.40;101286.50;5270964;28;20031;-86
2023/06/09 10:56:52;;;;;;;5.55;3.55;;;;;;;36.49;53.68;101283.06;5265011;28;20043;-85
2023/06/09 10:59:23;;;;;;;7.72;4.20;;;;;;;36.39;49.67;101277.72;5271961;28;20296;-85
2023/06/09 11:02:03;;;;;;;8.10;4.30;;;;;;;36.67;51.75;101277.72;5269116;28;20028;-85
2023/06/09 11:04:37;;;;;;;11.30;3.70;;;;;;;37.06;51.01;101279.16;5269252;28;20111;-86
2023/06/09 11:07:26;;;;;;;9.47;4.00;;;;;;;37.40;50.17;101273.13;5276013;28;20024;-85
2023/06/09 11:09:57;;;;;;;13.98;4.97;;;;;;;36.87;47.80;101277.34;5268969;28;20032;-86
2023/06/09 11:12:38;;;;;;;9.10;4.30;;;;;;;37.05;48.72;101274.75;5277414;28;20559;-85
2023/06/09 11:15:10;;;;;;;6.30;3.72;;;;;;;36.99;46.91;101275.97;5275624;28;20346;-84
2023/06/09 11:17:43;;;;;;;5.13;3.42;;;;;;;36.81;47.14;101267.47;5271353;28;20024;-85
2023/06/09 11:20:17;;;;;;;12.77;4.15;;;;;;;37.09;47.22;101271.00;5283693;28;20531;-85
2023/06/09 11:22:48;;;;;;;4.13;3.43;;;;;;;37.53;46.97;101274.22;5268862;28;20394;-85
2023/06/09 11:25:20;;;;;;;6.70;3.80;;;;;;;37.36;44.19;101263.78;5273942;28;20032;-85
2023/06/09 11:27:54;;;;;;;6.15;3.25;;;;;;;37.27;45.54;101260.09;5269634;28;20450;-85
2023/06/09 11:30:30;;;;;;;10.70;4.63;;;;;;;36.98;44.63;101264.06;5270792;28;20021;-86
2023/06/09 11:33:05;;;;;;;7.20;4.20;;;;;;;36.92;43.77;101256.94;5280694;28;20282;-86
2023/06/09 11:35:44;;;;;;;7.32;4.22;;;;;;;36.88;44.32;101259.53;5278073;28;20031;-86
2023/06/09 11:38:21;;;;;;;7.72;4.47;;;;;;;36.85;44.69;101257.38;5280756;28;20016;-85
2023/06/09 11:40:52;;;;;;;11.70;4.47;;;;;;;37.08;45.31;101255.50;5275352;28;20480;-86